sensor_id;sensor_type;location;lat;lon;timestamp;P1;durP1;ratioP1;P2;durP2;ratioP2
10341;SDS011;5216;54.602;18.356;2022-12-11T00:01:29;26.17;;;17.80;;
10341;SDS011;5216;54.602;18.356;2022-12-11T00:03:55;24.33;;;16.37;;
10341;SDS011;5216;54.602;18.356;2022-12-11T00:06:22;23.23;;;14.93;;
10341;SDS011;5216;54.602;18.356;2022-12-11T00:08:52;22.17;;;16.27;;
10341;SDS011;5216;54.602;18.356;2022-12-11T00:11:19;22.03;;;14.67;;
10341;SDS011;5216;54.602;18.356;2022-12-11T00:13:46;19.40;;;12.97;;
10341;SDS011;5216;54.602;18.356;2022-12-11T00:16:13;18.80;;;12.03;;
10341;SDS011;5216;54.602;18.356;2022-12-11T00:18:39;21.93;;;15.37;;
10341;SDS011;5216;54.602;18.356;2022-12-11T00:21:07;18.53;;;13.53;;
10341;SDS011;5216;54.602;18.356;2022-12-11T00:23:33;16.67;;;12.27;;
10341;SDS011;5216;54.602;18.356;2022-12-11T00:26:03;16.13;;;12.40;;
10341;SDS011;5216;54.602;18.356;2022-12-11T00:28:30;19.67;;;13.80;;
10341;SDS011;5216;54.602;18.356;2022-12-11T00:30:56;19.30;;;13.97;;
10341;SDS011;5216;54.602;18.356;2022-12-11T00:33:25;18.83;;;13.00;;
10341;SDS011;5216;54.602;18.356;2022-12-11T00:35:52;19.47;;;12.50;;
10341;SDS011;5216;54.602;18.356;2022-12-11T00:38:20;20.40;;;13.73;;
10341;SDS011;5216;54.602;18.356;2022-12-11T00:40:47;22.90;;;14.80;;
10341;SDS011;5216;54.602;18.356;2022-12-11T00:43:14;23.93;;;14.80;;
10341;SDS011;5216;54.602;18.356;2022-12-11T00:45:42;21.30;;;14.73;;
10341;SDS011;5216;54.602;18.356;2022-12-11T00:48:09;22.13;;;15.23;;
10341;SDS011;5216;54.602;18.356;2022-12-11T00:50:36;21.83;;;15.53;;
10341;SDS011;5216;54.602;18.356;2022-12-11T00:53:03;24.87;;;16.80;;
10341;SDS011;5216;54.602;18.356;2022-12-11T00:55:30;23.97;;;15.93;;
10341;SDS011;5216;54.602;18.356;2022-12-11T00:57:56;23.00;;;15.53;;
10341;SDS011;5216;54.602;18.356;2022-12-11T01:00:23;21.67;;;15.73;;
10341;SDS011;5216;54.602;18.356;2022-12-11T01:02:50;24.37;;;16.77;;
10341;SDS011;5216;54.602;18.356;2022-12-11T01:05:17;21.20;;;15.30;;
10341;SDS011;5216;54.602;18.356;2022-12-11T01:07:43;23.63;;;15.37;;
10341;SDS011;5216;54.602;18.356;2022-12-11T01:10:12;21.83;;;15.37;;
10341;SDS011;5216;54.602;18.356;2022-12-11T01:15:22;24.10;;;15.93;;
10341;SDS011;5216;54.602;18.356;2022-12-11T01:17:49;22.63;;;16.10;;
10341;SDS011;5216;54.602;18.356;2022-12-11T01:20:16;24.77;;;16.63;;
10341;SDS011;5216;54.602;18.356;2022-12-11T01:22:42;24.83;;;16.50;;
10341;SDS011;5216;54.602;18.356;2022-12-11T01:25:09;23.13;;;16.37;;
10341;SDS011;5216;54.602;18.356;2022-12-11T01:27:36;26.07;;;17.57;;
10341;SDS011;5216;54.602;18.356;2022-12-11T01:30:04;24.47;;;18.00;;
10341;SDS011;5216;54.602;18.356;2022-12-11T01:32:31;27.43;;;19.10;;
10341;SDS011;5216;54.602;18.356;2022-12-11T01:34:57;30.63;;;19.77;;
10341;SDS011;5216;54.602;18.356;2022-12-11T01:37:24;23.23;;;17.10;;
10341;SDS011;5216;54.602;18.356;2022-12-11T01:39:51;20.57;;;15.07;;
10341;SDS011;5216;54.602;18.356;2022-12-11T01:42:17;22.37;;;14.93;;
10341;SDS011;5216;54.602;18.356;2022-12-11T01:47:11;23.17;;;15.40;;
10341;SDS011;5216;54.602;18.356;2022-12-11T01:49:38;21.23;;;14.97;;
10341;SDS011;5216;54.602;18.356;2022-12-11T01:52:10;22.33;;;15.80;;
10341;SDS011;5216;54.602;18.356;2022-12-11T01:54:39;21.83;;;16.70;;
10341;SDS011;5216;54.602;18.356;2022-12-11T01:57:07;23.87;;;16.37;;
10341;SDS011;5216;54.602;18.356;2022-12-11T01:59:34;26.10;;;17.07;;
10341;SDS011;5216;54.602;18.356;2022-12-11T02:02:03;24.37;;;16.60;;
10341;SDS011;5216;54.602;18.356;2022-12-11T02:04:32;26.13;;;16.53;;
10341;SDS011;5216;54.602;18.356;2022-12-11T02:06:59;26.30;;;16.17;;
10341;SDS011;5216;54.602;18.356;2022-12-11T02:09:26;22.90;;;15.13;;
10341;SDS011;5216;54.602;18.356;2022-12-11T02:14:43;19.30;;;13.67;;
10341;SDS011;5216;54.602;18.356;2022-12-11T02:17:20;16.60;;;11.93;;
10341;SDS011;5216;54.602;18.356;2022-12-11T02:27:36;15.13;;;10.87;;
10341;SDS011;5216;54.602;18.356;2022-12-11T02:30:07;15.57;;;10.53;;
10341;SDS011;5216;54.602;18.356;2022-12-11T02:32:41;14.73;;;11.13;;
10341;SDS011;5216;54.602;18.356;2022-12-11T02:38:03;15.67;;;10.93;;
10341;SDS011;5216;54.602;18.356;2022-12-11T02:40:31;15.43;;;11.50;;
10341;SDS011;5216;54.602;18.356;2022-12-11T02:43:01;16.23;;;11.37;;
10341;SDS011;5216;54.602;18.356;2022-12-11T02:45:28;15.77;;;11.23;;
10341;SDS011;5216;54.602;18.356;2022-12-11T02:47:56;11.37;;;9.70;;
10341;SDS011;5216;54.602;18.356;2022-12-11T02:50:24;14.00;;;10.83;;
10341;SDS011;5216;54.602;18.356;2022-12-11T02:52:52;13.10;;;10.03;;
10341;SDS011;5216;54.602;18.356;2022-12-11T02:55:19;14.80;;;10.53;;
10341;SDS011;5216;54.602;18.356;2022-12-11T03:00:13;14.43;;;10.57;;
10341;SDS011;5216;54.602;18.356;2022-12-11T03:02:39;14.60;;;11.67;;
10341;SDS011;5216;54.602;18.356;2022-12-11T03:05:06;14.67;;;11.40;;
10341;SDS011;5216;54.602;18.356;2022-12-11T03:07:35;15.10;;;11.53;;
10341;SDS011;5216;54.602;18.356;2022-12-11T03:10:02;14.97;;;11.30;;
10341;SDS011;5216;54.602;18.356;2022-12-11T03:12:30;15.33;;;11.00;;
10341;SDS011;5216;54.602;18.356;2022-12-11T03:14:57;16.00;;;11.50;;
10341;SDS011;5216;54.602;18.356;2022-12-11T03:17:33;18.33;;;12.60;;
10341;SDS011;5216;54.602;18.356;2022-12-11T03:22:33;24.03;;;15.10;;
10341;SDS011;5216;54.602;18.356;2022-12-11T03:25:03;21.83;;;15.10;;
10341;SDS011;5216;54.602;18.356;2022-12-11T03:27:34;21.47;;;15.30;;
10341;SDS011;5216;54.602;18.356;2022-12-11T03:30:07;19.23;;;14.00;;
10341;SDS011;5216;54.602;18.356;2022-12-11T03:32:35;18.90;;;14.37;;
10341;SDS011;5216;54.602;18.356;2022-12-11T03:35:08;18.27;;;13.33;;
10341;SDS011;5216;54.602;18.356;2022-12-11T03:37:38;17.40;;;12.43;;
10341;SDS011;5216;54.602;18.356;2022-12-11T03:40:07;18.37;;;13.00;;
10341;SDS011;5216;54.602;18.356;2022-12-11T03:42:36;15.30;;;11.90;;
10341;SDS011;5216;54.602;18.356;2022-12-11T03:45:03;16.17;;;12.47;;
10341;SDS011;5216;54.602;18.356;2022-12-11T03:47:30;15.83;;;11.03;;
10341;SDS011;5216;54.602;18.356;2022-12-11T03:49:57;14.93;;;10.47;;
10341;SDS011;5216;54.602;18.356;2022-12-11T03:52:25;16.70;;;11.30;;
10341;SDS011;5216;54.602;18.356;2022-12-11T03:54:52;16.00;;;10.77;;
10341;SDS011;5216;54.602;18.356;2022-12-11T03:57:21;14.20;;;10.73;;
10341;SDS011;5216;54.602;18.356;2022-12-11T03:59:50;15.40;;;11.27;;
10341;SDS011;5216;54.602;18.356;2022-12-11T04:02:16;14.73;;;11.10;;
10341;SDS011;5216;54.602;18.356;2022-12-11T04:04:42;14.90;;;10.70;;
10341;SDS011;5216;54.602;18.356;2022-12-11T04:07:09;13.80;;;10.70;;
10341;SDS011;5216;54.602;18.356;2022-12-11T04:09:35;20.00;;;13.77;;
10341;SDS011;5216;54.602;18.356;2022-12-11T04:12:02;24.40;;;15.83;;
10341;SDS011;5216;54.602;18.356;2022-12-11T04:14:28;26.00;;;17.77;;
10341;SDS011;5216;54.602;18.356;2022-12-11T04:17:13;31.80;;;19.77;;
10341;SDS011;5216;54.602;18.356;2022-12-11T04:20:00;28.60;;;19.37;;
10341;SDS011;5216;54.602;18.356;2022-12-11T04:22:45;31.53;;;20.30;;
10341;SDS011;5216;54.602;18.356;2022-12-11T04:25:30;28.63;;;19.90;;
10341;SDS011;5216;54.602;18.356;2022-12-11T04:27:57;29.17;;;18.20;;
10341;SDS011;5216;54.602;18.356;2022-12-11T04:30:23;31.23;;;17.93;;
10341;SDS011;5216;54.602;18.356;2022-12-11T04:32:59;27.30;;;17.63;;
10341;SDS011;5216;54.602;18.356;2022-12-11T04:35:25;29.43;;;17.43;;
10341;SDS011;5216;54.602;18.356;2022-12-11T04:37:52;29.23;;;18.03;;
10341;SDS011;5216;54.602;18.356;2022-12-11T04:40:19;27.33;;;16.93;;
10341;SDS011;5216;54.602;18.356;2022-12-11T04:42:45;24.13;;;16.23;;
10341;SDS011;5216;54.602;18.356;2022-12-11T04:45:12;24.80;;;16.37;;
10341;SDS011;5216;54.602;18.356;2022-12-11T04:47:39;23.07;;;15.30;;
10341;SDS011;5216;54.602;18.356;2022-12-11T04:50:07;20.77;;;13.97;;
10341;SDS011;5216;54.602;18.356;2022-12-11T04:52:33;19.90;;;14.00;;
10341;SDS011;5216;54.602;18.356;2022-12-11T04:55:00;19.97;;;13.83;;
10341;SDS011;5216;54.602;18.356;2022-12-11T04:57:26;21.90;;;13.17;;
10341;SDS011;5216;54.602;18.356;2022-12-11T04:59:53;18.33;;;12.83;;
10341;SDS011;5216;54.602;18.356;2022-12-11T05:02:19;17.67;;;12.80;;
10341;SDS011;5216;54.602;18.356;2022-12-11T05:04:46;20.50;;;13.70;;
10341;SDS011;5216;54.602;18.356;2022-12-11T05:07:13;19.53;;;12.83;;
10341;SDS011;5216;54.602;18.356;2022-12-11T05:09:39;17.93;;;12.80;;
10341;SDS011;5216;54.602;18.356;2022-12-11T05:12:06;19.43;;;12.97;;
10341;SDS011;5216;54.602;18.356;2022-12-11T05:14:32;19.63;;;13.97;;
10341;SDS011;5216;54.602;18.356;2022-12-11T05:16:59;18.13;;;12.70;;
10341;SDS011;5216;54.602;18.356;2022-12-11T05:19:25;17.47;;;13.13;;
10341;SDS011;5216;54.602;18.356;2022-12-11T05:21:52;17.83;;;13.60;;
10341;SDS011;5216;54.602;18.356;2022-12-11T05:24:18;19.60;;;13.93;;
10341;SDS011;5216;54.602;18.356;2022-12-11T05:26:45;19.53;;;13.77;;
10341;SDS011;5216;54.602;18.356;2022-12-11T05:29:11;19.60;;;13.17;;
10341;SDS011;5216;54.602;18.356;2022-12-11T05:31:39;30.37;;;19.70;;
10341;SDS011;5216;54.602;18.356;2022-12-11T05:34:05;30.83;;;21.37;;
10341;SDS011;5216;54.602;18.356;2022-12-11T05:36:32;37.03;;;24.77;;
10341;SDS011;5216;54.602;18.356;2022-12-11T05:38:59;38.40;;;24.97;;
10341;SDS011;5216;54.602;18.356;2022-12-11T05:41:28;37.07;;;26.40;;
10341;SDS011;5216;54.602;18.356;2022-12-11T05:43:54;35.50;;;23.30;;
10341;SDS011;5216;54.602;18.356;2022-12-11T05:46:22;26.33;;;17.83;;
10341;SDS011;5216;54.602;18.356;2022-12-11T05:48:50;27.63;;;17.90;;
10341;SDS011;5216;54.602;18.356;2022-12-11T05:51:17;27.97;;;17.90;;
10341;SDS011;5216;54.602;18.356;2022-12-11T05:53:44;23.90;;;17.07;;
10341;SDS011;5216;54.602;18.356;2022-12-11T05:56:11;22.00;;;15.70;;
10341;SDS011;5216;54.602;18.356;2022-12-11T05:58:38;22.30;;;15.33;;
10341;SDS011;5216;54.602;18.356;2022-12-11T06:01:09;26.80;;;16.43;;
10341;SDS011;5216;54.602;18.356;2022-12-11T06:03:36;21.77;;;16.10;;
10341;SDS011;5216;54.602;18.356;2022-12-11T06:06:03;24.57;;;16.70;;
10341;SDS011;5216;54.602;18.356;2022-12-11T06:08:30;37.40;;;22.20;;
10341;SDS011;5216;54.602;18.356;2022-12-11T06:10:57;35.17;;;22.30;;
10341;SDS011;5216;54.602;18.356;2022-12-11T06:13:23;30.83;;;19.37;;
10341;SDS011;5216;54.602;18.356;2022-12-11T06:15:50;21.60;;;16.50;;
10341;SDS011;5216;54.602;18.356;2022-12-11T06:18:16;22.97;;;16.53;;
10341;SDS011;5216;54.602;18.356;2022-12-11T06:20:43;22.57;;;15.43;;
10341;SDS011;5216;54.602;18.356;2022-12-11T06:23:09;23.67;;;16.20;;
10341;SDS011;5216;54.602;18.356;2022-12-11T06:25:39;47.03;;;24.03;;
10341;SDS011;5216;54.602;18.356;2022-12-11T06:28:05;48.40;;;28.97;;
10341;SDS011;5216;54.602;18.356;2022-12-11T06:30:32;44.43;;;25.23;;
10341;SDS011;5216;54.602;18.356;2022-12-11T06:33:04;37.90;;;25.07;;
10341;SDS011;5216;54.602;18.356;2022-12-11T06:35:31;39.23;;;24.77;;
10341;SDS011;5216;54.602;18.356;2022-12-11T06:38:07;35.87;;;23.80;;
10341;SDS011;5216;54.602;18.356;2022-12-11T06:40:34;37.63;;;24.30;;
10341;SDS011;5216;54.602;18.356;2022-12-11T06:43:01;37.30;;;23.47;;
10341;SDS011;5216;54.602;18.356;2022-12-11T06:45:27;34.17;;;22.37;;
10341;SDS011;5216;54.602;18.356;2022-12-11T06:47:54;26.90;;;19.37;;
10341;SDS011;5216;54.602;18.356;2022-12-11T06:50:20;26.47;;;18.87;;
10341;SDS011;5216;54.602;18.356;2022-12-11T06:52:47;31.80;;;20.23;;
10341;SDS011;5216;54.602;18.356;2022-12-11T06:55:13;34.17;;;23.57;;
10341;SDS011;5216;54.602;18.356;2022-12-11T06:57:40;29.60;;;20.73;;
10341;SDS011;5216;54.602;18.356;2022-12-11T07:00:07;33.63;;;20.67;;
10341;SDS011;5216;54.602;18.356;2022-12-11T07:02:33;25.83;;;18.93;;
10341;SDS011;5216;54.602;18.356;2022-12-11T07:05:00;26.47;;;18.23;;
10341;SDS011;5216;54.602;18.356;2022-12-11T07:07:26;27.33;;;18.87;;
10341;SDS011;5216;54.602;18.356;2022-12-11T07:09:53;34.67;;;21.47;;
10341;SDS011;5216;54.602;18.356;2022-12-11T07:12:19;28.43;;;21.00;;
10341;SDS011;5216;54.602;18.356;2022-12-11T07:14:46;30.93;;;22.33;;
10341;SDS011;5216;54.602;18.356;2022-12-11T07:17:12;37.47;;;25.47;;
10341;SDS011;5216;54.602;18.356;2022-12-11T07:19:39;40.77;;;27.70;;
10341;SDS011;5216;54.602;18.356;2022-12-11T07:22:06;35.20;;;24.60;;
10341;SDS011;5216;54.602;18.356;2022-12-11T07:24:32;38.73;;;25.37;;
10341;SDS011;5216;54.602;18.356;2022-12-11T07:26:59;39.27;;;25.53;;
10341;SDS011;5216;54.602;18.356;2022-12-11T07:29:25;35.80;;;24.60;;
10341;SDS011;5216;54.602;18.356;2022-12-11T07:31:52;38.37;;;27.00;;
10341;SDS011;5216;54.602;18.356;2022-12-11T07:34:18;34.77;;;25.17;;
10341;SDS011;5216;54.602;18.356;2022-12-11T07:36:45;44.97;;;29.17;;
10341;SDS011;5216;54.602;18.356;2022-12-11T07:39:11;40.13;;;26.97;;
10341;SDS011;5216;54.602;18.356;2022-12-11T07:41:38;43.90;;;28.30;;
10341;SDS011;5216;54.602;18.356;2022-12-11T07:44:04;40.67;;;28.20;;
10341;SDS011;5216;54.602;18.356;2022-12-11T07:46:32;39.80;;;27.43;;
10341;SDS011;5216;54.602;18.356;2022-12-11T07:48:58;37.27;;;26.43;;
10341;SDS011;5216;54.602;18.356;2022-12-11T07:51:29;37.83;;;28.10;;
10341;SDS011;5216;54.602;18.356;2022-12-11T07:53:57;41.43;;;27.60;;
10341;SDS011;5216;54.602;18.356;2022-12-11T07:56:24;40.63;;;27.97;;
10341;SDS011;5216;54.602;18.356;2022-12-11T07:58:51;38.30;;;28.63;;
10341;SDS011;5216;54.602;18.356;2022-12-11T08:01:24;39.17;;;26.53;;
10341;SDS011;5216;54.602;18.356;2022-12-11T08:03:52;41.87;;;28.60;;
10341;SDS011;5216;54.602;18.356;2022-12-11T08:06:19;45.70;;;29.60;;
10341;SDS011;5216;54.602;18.356;2022-12-11T08:08:46;39.87;;;27.87;;
10341;SDS011;5216;54.602;18.356;2022-12-11T08:11:13;38.67;;;26.97;;
10341;SDS011;5216;54.602;18.356;2022-12-11T08:13:41;35.90;;;25.93;;
10341;SDS011;5216;54.602;18.356;2022-12-11T08:16:08;36.37;;;24.83;;
10341;SDS011;5216;54.602;18.356;2022-12-11T08:18:35;39.03;;;27.13;;
10341;SDS011;5216;54.602;18.356;2022-12-11T08:21:05;39.57;;;25.90;;
10341;SDS011;5216;54.602;18.356;2022-12-11T08:23:32;36.40;;;26.17;;
10341;SDS011;5216;54.602;18.356;2022-12-11T08:26:01;41.80;;;28.57;;
10341;SDS011;5216;54.602;18.356;2022-12-11T08:28:27;42.93;;;29.57;;
10341;SDS011;5216;54.602;18.356;2022-12-11T08:30:54;44.77;;;30.90;;
10341;SDS011;5216;54.602;18.356;2022-12-11T08:33:21;45.20;;;30.63;;
10341;SDS011;5216;54.602;18.356;2022-12-11T08:35:47;47.40;;;31.17;;
10341;SDS011;5216;54.602;18.356;2022-12-11T08:38:13;39.17;;;28.33;;
10341;SDS011;5216;54.602;18.356;2022-12-11T08:40:40;54.77;;;34.23;;
10341;SDS011;5216;54.602;18.356;2022-12-11T08:43:07;73.03;;;45.13;;
10341;SDS011;5216;54.602;18.356;2022-12-11T08:45:33;59.77;;;37.70;;
10341;SDS011;5216;54.602;18.356;2022-12-11T08:48:00;56.73;;;36.13;;
10341;SDS011;5216;54.602;18.356;2022-12-11T08:50:26;57.27;;;37.47;;
10341;SDS011;5216;54.602;18.356;2022-12-11T08:52:53;67.47;;;40.97;;
10341;SDS011;5216;54.602;18.356;2022-12-11T08:55:19;63.77;;;41.23;;
10341;SDS011;5216;54.602;18.356;2022-12-11T08:57:47;66.37;;;42.97;;
10341;SDS011;5216;54.602;18.356;2022-12-11T09:00:13;64.53;;;43.87;;
10341;SDS011;5216;54.602;18.356;2022-12-11T09:02:43;69.87;;;44.93;;
10341;SDS011;5216;54.602;18.356;2022-12-11T09:05:10;66.90;;;43.67;;
10341;SDS011;5216;54.602;18.356;2022-12-11T09:07:37;65.17;;;44.97;;
10341;SDS011;5216;54.602;18.356;2022-12-11T09:10:05;72.63;;;50.00;;
10341;SDS011;5216;54.602;18.356;2022-12-11T09:12:32;78.07;;;50.67;;
10341;SDS011;5216;54.602;18.356;2022-12-11T09:14:59;78.20;;;51.63;;
10341;SDS011;5216;54.602;18.356;2022-12-11T09:17:26;68.27;;;46.47;;
10341;SDS011;5216;54.602;18.356;2022-12-11T09:19:52;77.20;;;48.67;;
10341;SDS011;5216;54.602;18.356;2022-12-11T09:22:19;76.17;;;50.30;;
10341;SDS011;5216;54.602;18.356;2022-12-11T09:24:45;83.27;;;54.97;;
10341;SDS011;5216;54.602;18.356;2022-12-11T09:27:12;85.93;;;55.93;;
10341;SDS011;5216;54.602;18.356;2022-12-11T09:29:39;79.57;;;52.53;;
10341;SDS011;5216;54.602;18.356;2022-12-11T09:32:05;199.07;;;136.60;;
10341;SDS011;5216;54.602;18.356;2022-12-11T09:34:32;80.83;;;55.50;;
10341;SDS011;5216;54.602;18.356;2022-12-11T09:36:59;53.13;;;38.17;;
10341;SDS011;5216;54.602;18.356;2022-12-11T09:39:27;64.50;;;45.43;;
10341;SDS011;5216;54.602;18.356;2022-12-11T09:42:13;64.53;;;45.33;;
10341;SDS011;5216;54.602;18.356;2022-12-11T09:44:42;63.10;;;45.03;;
10341;SDS011;5216;54.602;18.356;2022-12-11T09:47:30;89.90;;;53.97;;
10341;SDS011;5216;54.602;18.356;2022-12-11T09:50:31;89.03;;;55.20;;
10341;SDS011;5216;54.602;18.356;2022-12-11T09:55:21;80.33;;;52.50;;
10341;SDS011;5216;54.602;18.356;2022-12-11T10:00:39;79.27;;;54.60;;
10341;SDS011;5216;54.602;18.356;2022-12-11T10:03:21;84.30;;;57.93;;
10341;SDS011;5216;54.602;18.356;2022-12-11T10:18:58;92.93;;;61.93;;
10341;SDS011;5216;54.602;18.356;2022-12-11T10:21:25;81.33;;;55.60;;
10341;SDS011;5216;54.602;18.356;2022-12-11T10:23:56;90.70;;;60.30;;
10341;SDS011;5216;54.602;18.356;2022-12-11T10:26:27;91.27;;;60.83;;
10341;SDS011;5216;54.602;18.356;2022-12-11T10:28:59;124.17;;;82.97;;
10341;SDS011;5216;54.602;18.356;2022-12-11T10:36:51;86.00;;;59.17;;
10341;SDS011;5216;54.602;18.356;2022-12-11T10:39:25;249.10;;;156.83;;
10341;SDS011;5216;54.602;18.356;2022-12-11T10:41:53;176.93;;;115.07;;
10341;SDS011;5216;54.602;18.356;2022-12-11T10:44:21;110.27;;;72.53;;
10341;SDS011;5216;54.602;18.356;2022-12-11T10:46:59;97.73;;;68.37;;
10341;SDS011;5216;54.602;18.356;2022-12-11T10:49:28;99.80;;;68.33;;
10341;SDS011;5216;54.602;18.356;2022-12-11T10:51:55;103.60;;;71.03;;
10341;SDS011;5216;54.602;18.356;2022-12-11T10:56:50;81.70;;;56.83;;
10341;SDS011;5216;54.602;18.356;2022-12-11T10:59:25;45.50;;;32.67;;
10341;SDS011;5216;54.602;18.356;2022-12-11T11:01:54;3.03;;;2.53;;
10341;SDS011;5216;54.602;18.356;2022-12-11T11:04:22;4.87;;;3.47;;
10341;SDS011;5216;54.602;18.356;2022-12-11T11:09:34;4.23;;;2.70;;
10341;SDS011;5216;54.602;18.356;2022-12-11T11:12:01;4.57;;;1.97;;
10341;SDS011;5216;54.602;18.356;2022-12-11T11:14:33;3.10;;;2.40;;
10341;SDS011;5216;54.602;18.356;2022-12-11T11:17:00;2.90;;;2.27;;
10341;SDS011;5216;54.602;18.356;2022-12-11T11:19:30;3.40;;;2.10;;
10341;SDS011;5216;54.602;18.356;2022-12-11T11:21:59;4.97;;;3.70;;
10341;SDS011;5216;54.602;18.356;2022-12-11T11:24:37;4.53;;;3.40;;
10341;SDS011;5216;54.602;18.356;2022-12-11T11:30:00;5.13;;;3.00;;
10341;SDS011;5216;54.602;18.356;2022-12-11T11:32:32;5.63;;;3.97;;
10341;SDS011;5216;54.602;18.356;2022-12-11T11:37:39;11.43;;;7.00;;
10341;SDS011;5216;54.602;18.356;2022-12-11T11:40:10;6.70;;;4.47;;
10341;SDS011;5216;54.602;18.356;2022-12-11T11:42:44;3.80;;;2.50;;
10341;SDS011;5216;54.602;18.356;2022-12-11T11:45:16;2.93;;;2.20;;
10341;SDS011;5216;54.602;18.356;2022-12-11T11:50:36;3.10;;;2.43;;
10341;SDS011;5216;54.602;18.356;2022-12-11T11:55:58;26.33;;;18.10;;
10341;SDS011;5216;54.602;18.356;2022-12-11T11:58:30;3.83;;;3.37;;
10341;SDS011;5216;54.602;18.356;2022-12-11T12:01:02;3.20;;;2.27;;
10341;SDS011;5216;54.602;18.356;2022-12-11T12:03:29;2.80;;;2.50;;
10341;SDS011;5216;54.602;18.356;2022-12-11T12:22:30;3.03;;;2.27;;
10341;SDS011;5216;54.602;18.356;2022-12-11T12:27:35;3.00;;;2.47;;
10341;SDS011;5216;54.602;18.356;2022-12-11T12:30:19;3.63;;;2.47;;
10341;SDS011;5216;54.602;18.356;2022-12-11T12:32:53;2.97;;;2.53;;
10341;SDS011;5216;54.602;18.356;2022-12-11T12:37:57;4.03;;;3.10;;
10341;SDS011;5216;54.602;18.356;2022-12-11T12:40:29;4.30;;;3.20;;
10341;SDS011;5216;54.602;18.356;2022-12-11T12:48:11;5.57;;;4.00;;
10341;SDS011;5216;54.602;18.356;2022-12-11T12:50:41;5.20;;;3.37;;
10341;SDS011;5216;54.602;18.356;2022-12-11T12:53:14;3.20;;;2.70;;
10341;SDS011;5216;54.602;18.356;2022-12-11T12:55:41;2.80;;;2.10;;
10341;SDS011;5216;54.602;18.356;2022-12-11T13:06:26;2.37;;;1.90;;
10341;SDS011;5216;54.602;18.356;2022-12-11T13:08:53;2.50;;;1.97;;
10341;SDS011;5216;54.602;18.356;2022-12-11T13:11:20;2.13;;;1.90;;
10341;SDS011;5216;54.602;18.356;2022-12-11T13:14:03;2.97;;;2.07;;
10341;SDS011;5216;54.602;18.356;2022-12-11T13:16:34;2.83;;;2.10;;
10341;SDS011;5216;54.602;18.356;2022-12-11T13:19:02;2.87;;;2.20;;
10341;SDS011;5216;54.602;18.356;2022-12-11T13:21:41;2.40;;;1.83;;
10341;SDS011;5216;54.602;18.356;2022-12-11T13:26:43;2.77;;;2.00;;
10341;SDS011;5216;54.602;18.356;2022-12-11T13:31:57;2.90;;;2.30;;
10341;SDS011;5216;54.602;18.356;2022-12-11T13:34:24;3.03;;;2.40;;
10341;SDS011;5216;54.602;18.356;2022-12-11T13:36:53;3.20;;;2.63;;
10341;SDS011;5216;54.602;18.356;2022-12-11T13:39:24;2.73;;;2.10;;
10341;SDS011;5216;54.602;18.356;2022-12-11T13:41:54;2.60;;;2.20;;
10341;SDS011;5216;54.602;18.356;2022-12-11T13:44:23;2.63;;;2.33;;
10341;SDS011;5216;54.602;18.356;2022-12-11T13:46:52;3.37;;;2.50;;
10341;SDS011;5216;54.602;18.356;2022-12-11T13:49:20;4.20;;;2.57;;
10341;SDS011;5216;54.602;18.356;2022-12-11T13:51:51;2.87;;;2.50;;
10341;SDS011;5216;54.602;18.356;2022-12-11T13:54:18;6.83;;;6.03;;
10341;SDS011;5216;54.602;18.356;2022-12-11T13:56:58;9.97;;;6.80;;
10341;SDS011;5216;54.602;18.356;2022-12-11T14:01:56;3.20;;;2.90;;
10341;SDS011;5216;54.602;18.356;2022-12-11T14:04:24;3.60;;;2.73;;
10341;SDS011;5216;54.602;18.356;2022-12-11T14:06:51;4.53;;;2.97;;
10341;SDS011;5216;54.602;18.356;2022-12-11T14:09:18;3.57;;;2.87;;
10341;SDS011;5216;54.602;18.356;2022-12-11T14:11:45;3.80;;;2.50;;
10341;SDS011;5216;54.602;18.356;2022-12-11T14:14:21;3.70;;;2.50;;
10341;SDS011;5216;54.602;18.356;2022-12-11T14:16:49;3.10;;;2.40;;
10341;SDS011;5216;54.602;18.356;2022-12-11T14:19:18;2.57;;;2.37;;
10341;SDS011;5216;54.602;18.356;2022-12-11T14:24:46;2.30;;;2.07;;
10341;SDS011;5216;54.602;18.356;2022-12-11T14:27:15;2.83;;;1.97;;
10341;SDS011;5216;54.602;18.356;2022-12-11T14:29:41;2.30;;;2.00;;
10341;SDS011;5216;54.602;18.356;2022-12-11T14:32:08;2.50;;;1.90;;
10341;SDS011;5216;54.602;18.356;2022-12-11T14:34:43;2.70;;;2.03;;
10341;SDS011;5216;54.602;18.356;2022-12-11T14:37:11;3.13;;;2.40;;
10341;SDS011;5216;54.602;18.356;2022-12-11T14:39:40;2.97;;;2.37;;
10341;SDS011;5216;54.602;18.356;2022-12-11T14:42:31;2.80;;;2.50;;
10341;SDS011;5216;54.602;18.356;2022-12-11T14:45:04;3.53;;;2.77;;
10341;SDS011;5216;54.602;18.356;2022-12-11T14:47:34;3.70;;;2.90;;
10341;SDS011;5216;54.602;18.356;2022-12-11T14:52:54;3.13;;;2.80;;
10341;SDS011;5216;54.602;18.356;2022-12-11T14:55:25;4.00;;;2.93;;
10341;SDS011;5216;54.602;18.356;2022-12-11T14:57:56;3.90;;;3.13;;
10341;SDS011;5216;54.602;18.356;2022-12-11T15:02:57;3.77;;;2.77;;
10341;SDS011;5216;54.602;18.356;2022-12-11T15:05:24;11.00;;;6.87;;
10341;SDS011;5216;54.602;18.356;2022-12-11T15:07:58;6.17;;;4.30;;
10341;SDS011;5216;54.602;18.356;2022-12-11T15:10:27;5.53;;;3.43;;
10341;SDS011;5216;54.602;18.356;2022-12-11T15:12:56;6.53;;;4.40;;
10341;SDS011;5216;54.602;18.356;2022-12-11T15:15:23;5.10;;;3.30;;
10341;SDS011;5216;54.602;18.356;2022-12-11T15:17:51;3.90;;;3.07;;
10341;SDS011;5216;54.602;18.356;2022-12-11T15:20:28;4.87;;;3.50;;
10341;SDS011;5216;54.602;18.356;2022-12-11T15:22:56;5.70;;;4.30;;
10341;SDS011;5216;54.602;18.356;2022-12-11T15:25:25;7.60;;;5.43;;
10341;SDS011;5216;54.602;18.356;2022-12-11T15:27:53;9.37;;;6.37;;
10341;SDS011;5216;54.602;18.356;2022-12-11T15:35:37;11.40;;;8.13;;
10341;SDS011;5216;54.602;18.356;2022-12-11T15:38:04;10.63;;;7.47;;
10341;SDS011;5216;54.602;18.356;2022-12-11T15:40:31;10.60;;;5.83;;
10341;SDS011;5216;54.602;18.356;2022-12-11T15:42:59;8.07;;;4.60;;
10341;SDS011;5216;54.602;18.356;2022-12-11T15:45:27;5.93;;;4.23;;
10341;SDS011;5216;54.602;18.356;2022-12-11T15:47:54;6.37;;;4.30;;
10341;SDS011;5216;54.602;18.356;2022-12-11T15:52:48;6.80;;;4.70;;
10341;SDS011;5216;54.602;18.356;2022-12-11T15:55:19;5.77;;;4.47;;
10341;SDS011;5216;54.602;18.356;2022-12-11T15:57:48;6.53;;;4.67;;
10341;SDS011;5216;54.602;18.356;2022-12-11T16:00:17;10.97;;;5.87;;
10341;SDS011;5216;54.602;18.356;2022-12-11T16:02:44;8.67;;;5.73;;
10341;SDS011;5216;54.602;18.356;2022-12-11T16:05:12;8.87;;;6.47;;
10341;SDS011;5216;54.602;18.356;2022-12-11T16:07:39;11.50;;;7.30;;
10341;SDS011;5216;54.602;18.356;2022-12-11T16:10:07;9.63;;;6.90;;
10341;SDS011;5216;54.602;18.356;2022-12-11T16:12:36;9.57;;;6.60;;
10341;SDS011;5216;54.602;18.356;2022-12-11T16:15:03;9.70;;;7.30;;
10341;SDS011;5216;54.602;18.356;2022-12-11T16:17:30;9.27;;;7.07;;
10341;SDS011;5216;54.602;18.356;2022-12-11T16:19:57;10.87;;;7.63;;
10341;SDS011;5216;54.602;18.356;2022-12-11T16:22:24;13.53;;;8.27;;
10341;SDS011;5216;54.602;18.356;2022-12-11T16:24:53;13.33;;;8.33;;
10341;SDS011;5216;54.602;18.356;2022-12-11T16:27:21;11.73;;;8.00;;
10341;SDS011;5216;54.602;18.356;2022-12-11T16:29:48;9.00;;;7.00;;
10341;SDS011;5216;54.602;18.356;2022-12-11T16:32:15;13.40;;;7.77;;
10341;SDS011;5216;54.602;18.356;2022-12-11T16:34:42;9.70;;;6.90;;
10341;SDS011;5216;54.602;18.356;2022-12-11T16:37:09;9.63;;;7.03;;
10341;SDS011;5216;54.602;18.356;2022-12-11T16:39:36;11.03;;;7.80;;